Time;durP1;ratioP1;P1;durP2;ratioP2;P2;SDS_P1;SDS_P2;PMS_P1;PMS_P2;Temp;Humidity;BMP_temperature;BMP_pressure;BME280_temperature;BME280_humidity;BME280_pressure;Samples;Min_cycle;Max_cycle;Signal;HPM_P1;HPM_P2
2022/04/22 00:02:13;;;;;;;;;;;;;;;;;;5070245;28;1176;-67
2022/04/22 00:04:39;;;;;;;;;;;;;;;;;;5072103;28;896;-67
2022/04/22 00:07:04;;;;;;;;;;;;;;;;;;5071599;28;852;-67
2022/04/22 00:09:29;;;;;;;;;;;;;;;;;;5071408;28;845;-67
2022/04/22 00:11:55;;;;;;;;;;;;;;;;;;5071732;28;821;-67
2022/04/22 00:14:20;;;;;;;;;;;;;;;;;;5070086;28;1175;-66
2022/04/22 00:16:45;;;;;;;;;;;;;;;;;;5070194;28;904;-67
2022/04/22 00:19:10;;;;;;;;;;;;;;;;;;5071159;28;1984;-67
2022/04/22 00:21:36;;;;;;;;;;;;;;;;;;5070129;28;1055;-67
2022/04/22 00:24:01;;;;;;;;;;;;;;;;;;5070108;28;883;-67
2022/04/22 00:26:26;;;;;;;;;;;;;;;;;;5070881;28;821;-67
2022/04/22 00:28:52;;;;;;;;;;;;;;;;;;5071612;28;947;-67
2022/04/22 00:31:17;;;;;;;;;;;;;;;;;;5069285;28;1333;-67
2022/04/22 00:33:42;;;;;;;;;;;;;;;;;;5071722;28;900;-66
2022/04/22 00:36:07;;;;;;;;;;;;;;;;;;5071493;28;845;-66
2022/04/22 00:38:34;;;;;;;;;;;;;;;;;;5071265;28;1914;-66
2022/04/22 00:40:59;;;;;;;;;;;;;;;;;;5071264;28;1065;-66
2022/04/22 00:43:25;;;;;;;;;;;;;;;;;;5069958;28;891;-67
2022/04/22 00:45:51;;;;;;;;;;;;;;;;;;5071832;28;927;-67
2022/04/22 00:48:18;;;;;;;;;;;;;;;;;;5071323;28;1163;-67
2022/04/22 00:50:44;;;;;;;;;;;;;;;;;;5071798;28;943;-67
2022/04/22 00:53:09;;;;;;;;;;;;;;;;;;5071264;28;785;-67
2022/04/22 00:55:39;;;;;;;;;;;;;;;;;;5070323;28;1167;-67
2022/04/22 00:58:04;;;;;;;;;;;;;;;;;;5070980;28;883;-67
2022/04/22 01:00:30;;;;;;;;;;;;;;;;;;5069485;28;1918;-67
2022/04/22 01:02:55;;;;;;;;;;;;;;;;;;5071796;28;900;-66
2022/04/22 01:10:50;;;;;;;;;;;;;;;;;;5072242;28;690;-67
2022/04/22 01:13:16;;;;;;;;;;;;;;;;;;5053093;28;1199;-67
2022/04/22 01:15:42;;;;;;;;;;;;;;;;;;5069842;28;1188;-67
2022/04/22 01:18:07;;;;;;;;;;;;;;;;;;5071312;28;864;-67
2022/04/22 01:20:33;;;;;;;;;;;;;;;;;;5070877;28;1906;-67
2022/04/22 01:22:58;;;;;;;;;;;;;;;;;;5069603;28;1309;-67
2022/04/22 01:25:23;;;;;;;;;;;;;;;;;;5070873;28;919;-67
2022/04/22 01:27:50;;;;;;;;;;;;;;;;;;5069460;28;1325;-67
2022/04/22 01:30:19;;;;;;;;;;;;;;;;;;5070673;28;877;-67
2022/04/22 01:32:45;;;;;;;;;;;;;;;;;;5070850;28;1015;-67
2022/04/22 01:35:10;;;;;;;;;;;;;;;;;;5070858;28;820;-67
2022/04/22 01:37:37;;;;;;;;;;;;;;;;;;5071130;28;947;-67
2022/04/22 01:40:02;;;;;;;;;;;;;;;;;;5070636;28;1905;-66
2022/04/22 01:42:27;;;;;;;;;;;;;;;;;;5070532;28;1147;-67
2022/04/22 01:44:53;;;;;;;;;;;;;;;;;;5069427;28;1094;-67
2022/04/22 01:47:19;;;;;;;;;;;;;;;;;;5070140;28;841;-67
2022/04/22 01:49:44;;;;;;;;;;;;;;;;;;5070986;28;868;-67
2022/04/22 01:52:09;;;;;;;;;;;;;;;;;;5069510;28;1270;-67
2022/04/22 01:54:35;;;;;;;;;;;;;;;;;;5070467;28;939;-66
2022/04/22 01:57:00;;;;;;;;;;;;;;;;;;5069566;28;1418;-67
2022/04/22 01:59:25;;;;;;;;;;;;;;;;;;5070302;28;1976;-66
2022/04/22 02:01:51;;;;;;;;;;;;;;;;;;5071192;28;900;-67
2022/04/22 02:04:16;;;;;;;;;;;;;;;;;;5070516;28;1203;-67
2022/04/22 02:06:42;;;;;;;;;;;;;;;;;;5051366;28;1157;-68
2022/04/22 02:09:07;;;;;;;;;;;;;;;;;;5068745;28;1260;-67
2022/04/22 02:11:32;;;;;;;;;;;;;;;;;;5074027;28;927;-67
2022/04/22 02:13:57;;;;;;;;;;;;;;;;;;5073272;28;1618;-67
2022/04/22 02:16:23;;;;;;;;;;;;;;;;;;5074037;28;887;-66
2022/04/22 02:18:49;;;;;;;;;;;;;;;;;;5074028;28;1890;-66
2022/04/22 02:21:14;;;;;;;;;;;;;;;;;;5074266;28;1035;-67
2022/04/22 02:23:40;;;;;;;;;;;;;;;;;;5074070;28;904;-66
2022/04/22 02:26:05;;;;;;;;;;;;;;;;;;5072819;28;1224;-66
2022/04/22 02:28:34;;;;;;;;;;;;;;;;;;5073585;28;971;-66
2022/04/22 02:31:06;;;;;;;;;;;;;;;;;;5074245;28;888;-66
2022/04/22 02:33:36;;;;;;;;;;;;;;;;;;5073924;28;955;-66
2022/04/22 02:36:03;;;;;;;;;;;;;;;;;;5074215;28;1147;-67
2022/04/22 02:38:29;;;;;;;;;;;;;;;;;;5073863;28;913;-66
2022/04/22 02:46:23;;;;;;;;;;;;;;;;;;5074225;28;673;-66
2022/04/22 02:48:48;;;;;;;;;;;;;;;;;;5073910;28;852;-66
2022/04/22 02:51:13;;;;;;;;;;;;;;;;;;5073668;28;1236;-66
2022/04/22 02:53:38;;;;;;;;;;;;;;;;;;5074040;28;987;-66
2022/04/22 02:56:04;;;;;;;;;;;;;;;;;;5072436;28;1313;-66
2022/04/22 02:58:30;;;;;;;;;;;;;;;;;;5073428;28;890;-67
2022/04/22 03:00:55;;;;;;;;;;;;;;;;;;5073506;28;2007;-66
2022/04/22 03:03:20;;;;;;;;;;;;;;;;;;5074075;28;722;-66
2022/04/22 03:05:46;;;;;;;;;;;;;;;;;;5073275;28;832;-67
2022/04/22 03:08:11;;;;;;;;;;;;;;;;;;5073081;28;758;-68
2022/04/22 03:10:36;;;;;;;;;;;;;;;;;;5072948;28;804;-66
2022/04/22 03:13:03;;;;;;;;;;;;;;;;;;5073257;28;864;-66
2022/04/22 03:15:29;;;;;;;;;;;;;;;;;;5072643;28;916;-66
2022/04/22 03:17:54;;;;;;;;;;;;;;;;;;5072793;28;892;-66
2022/04/22 03:20:19;;;;;;;;;;;;;;;;;;5054419;28;1959;-66
2022/04/22 03:22:45;;;;;;;;;;;;;;;;;;5072554;28;915;-66
2022/04/22 03:25:10;;;;;;;;;;;;;;;;;;5071675;28;1007;-66
2022/04/22 03:27:35;;;;;;;;;;;;;;;;;;5070945;28;1489;-67
2022/04/22 03:30:02;;;;;;;;;;;;;;;;;;5071325;28;1335;-67
2022/04/22 03:32:28;;;;;;;;;;;;;;;;;;5072509;28;871;-66
2022/04/22 03:34:53;;;;;;;;;;;;;;;;;;5054888;28;1235;-67
2022/04/22 03:37:18;;;;;;;;;;;;;;;;;;5071510;28;1574;-66
2022/04/22 03:39:43;;;;;;;;;;;;;;;;;;5072524;28;1893;-66
2022/04/22 03:42:09;;;;;;;;;;;;;;;;;;5071013;28;1602;-66
2022/04/22 03:44:36;;;;;;;;;;;;;;;;;;5072795;28;915;-66
2022/04/22 03:47:03;;;;;;;;;;;;;;;;;;5071352;28;1353;-67
2022/04/22 03:49:29;;;;;;;;;;;;;;;;;;5072472;28;818;-66
2022/04/22 03:51:54;;;;;;;;;;;;;;;;;;5072943;28;845;-66
2022/04/22 03:54:22;;;;;;;;;;;;;;;;;;5071299;28;909;-66
2022/04/22 03:59:32;;;;;;;;;;;;;;;;;;5072268;28;1914;-66
2022/04/22 04:01:57;;;;;;;;;;;;;;;;;;5071617;28;876;-67
2022/04/22 04:04:22;;;;;;;;;;;;;;;;;;5072869;28;856;-67
2022/04/22 04:06:48;;;;;;;;;;;;;;;;;;5072512;28;903;-66
2022/04/22 04:17:38;;;;;;;;;;;;;;;;;;5052406;28;1116;-66
2022/04/22 04:23:16;;;;;;;;;;;;;;;;;;5052068;28;1083;-66
2022/04/22 04:25:41;;;;;;;;;;;;;;;;;;5071906;28;765;-66
2022/04/22 04:28:10;;;;;;;;;;;;;;;;;;5072185;28;840;-66
2022/04/22 04:30:39;;;;;;;;;;;;;;;;;;5071834;28;837;-67
2022/04/22 04:33:05;;;;;;;;;;;;;;;;;;5071009;28;915;-68
2022/04/22 04:35:30;;;;;;;;;;;;;;;;;;5070384;28;1475;-65
2022/04/22 04:37:55;;;;;;;;;;;;;;;;;;5071612;28;967;-67
2022/04/22 04:40:21;;;;;;;;;;;;;;;;;;5070985;28;2347;-66
2022/04/22 04:42:46;;;;;;;;;;;;;;;;;;5071114;28;1061;-66
2022/04/22 04:45:12;;;;;;;;;;;;;;;;;;5069994;28;1139;-67
2022/04/22 04:47:41;;;;;;;;;;;;;;;;;;5069798;28;975;-67
2022/04/22 04:50:07;;;;;;;;;;;;;;;;;;5071458;28;844;-66
2022/04/22 04:52:33;;;;;;;;;;;;;;;;;;5071311;28;956;-66
2022/04/22 04:54:58;;;;;;;;;;;;;;;;;;5069380;28;833;-67
2022/04/22 04:57:24;;;;;;;;;;;;;;;;;;5071099;28;903;-67
2022/04/22 04:59:50;;;;;;;;;;;;;;;;;;5069769;28;1977;-67
2022/04/22 05:02:15;;;;;;;;;;;;;;;;;;5069267;28;947;-67
2022/04/22 05:04:40;;;;;;;;;;;;;;;;;;5069063;28;1078;-65
2022/04/22 05:07:05;;;;;;;;;;;;;;;;;;5070869;28;785;-66
2022/04/22 05:09:30;;;;;;;;;;;;;;;;;;5070340;28;778;-65
2022/04/22 05:11:56;;;;;;;;;;;;;;;;;;5071109;28;840;-66
2022/04/22 05:14:21;;;;;;;;;;;;;;;;;;5070737;28;1010;-66
2022/04/22 05:16:46;;;;;;;;;;;;;;;;;;5068989;28;1191;-67
2022/04/22 05:19:12;;;;;;;;;;;;;;;;;;5071313;28;1957;-67
2022/04/22 05:21:37;;;;;;;;;;;;;;;;;;5070347;28;888;-67
2022/04/22 05:24:03;;;;;;;;;;;;;;;;;;5070389;28;778;-66
2022/04/22 05:26:28;;;;;;;;;;;;;;;;;;5069944;28;1190;-67
2022/04/22 05:28:53;;;;;;;;;;;;;;;;;;5069106;28;872;-66
2022/04/22 05:34:02;;;;;;;;;;;;;;;;;;5070876;28;656;-66
2022/04/22 05:36:27;;;;;;;;;;;;;;;;;;5070235;28;841;-66
2022/04/22 05:38:52;;;;;;;;;;;;;;;;;;5070572;28;1897;-66
2022/04/22 05:41:18;;;;;;;;;;;;;;;;;;5070310;28;1179;-66
2022/04/22 05:43:43;;;;;;;;;;;;;;;;;;5070875;28;1069;-65
2022/04/22 05:46:09;;;;;;;;;;;;;;;;;;5074835;28;1139;-66
2022/04/22 05:48:34;;;;;;;;;;;;;;;;;;5074809;28;792;-66
2022/04/22 05:50:59;;;;;;;;;;;;;;;;;;5074128;28;849;-66
2022/04/22 05:53:24;;;;;;;;;;;;;;;;;;5074144;28;833;-66
2022/04/22 05:55:49;;;;;;;;;;;;;;;;;;5074190;28;762;-66
2022/04/22 05:58:15;;;;;;;;;;;;;;;;;;5072656;28;935;-66
2022/04/22 06:00:40;;;;;;;;;;;;;;;;;;5073923;28;1980;-66
2022/04/22 06:03:06;;;;;;;;;;;;;;;;;;5072593;28;999;-65
2022/04/22 06:05:32;;;;;;;;;;;;;;;;;;5072665;28;950;-66
2022/04/22 06:10:55;;;;;;;;;;;;;;;;;;5065393;28;925;-66
2022/04/22 06:13:20;;;;;;;;;;;;;;;;;;5072812;28;923;-67
2022/04/22 06:15:46;;;;;;;;;;;;;;;;;;5055914;28;1176;-67
2022/04/22 06:18:11;;;;;;;;;;;;;;;;;;5073761;28;832;-67
2022/04/22 06:20:36;;;;;;;;;;;;;;;;;;5072166;28;1901;-66
2022/04/22 06:23:01;;;;;;;;;;;;;;;;;;5073942;28;931;-66
2022/04/22 06:25:28;;;;;;;;;;;;;;;;;;5073247;28;872;-67
2022/04/22 06:27:53;;;;;;;;;;;;;;;;;;5072266;28;848;-67
2022/04/22 06:30:20;;;;;;;;;;;;;;;;;;5073071;28;852;-66
2022/04/22 06:32:46;;;;;;;;;;;;;;;;;;5073316;28;911;-66
2022/04/22 06:35:12;;;;;;;;;;;;;;;;;;5072109;28;865;-66
2022/04/22 06:37:45;;;;;;;;;;;;;;;;;;5073131;28;790;-66
2022/04/22 06:45:48;;;;;;;;;;;;;;;;;;5049659;28;1069;-66
2022/04/22 06:48:30;;;;;;;;;;;;;;;;;;5071423;28;1340;-67
2022/04/22 06:50:56;;;;;;;;;;;;;;;;;;5071674;28;809;-67
2022/04/22 06:53:22;;;;;;;;;;;;;;;;;;5072097;28;825;-66
2022/04/22 06:55:47;;;;;;;;;;;;;;;;;;5072198;28;838;-67
2022/04/22 06:58:14;;;;;;;;;;;;;;;;;;5071423;28;1306;-66
2022/04/22 07:00:40;;;;;;;;;;;;;;;;;;5072761;28;1989;-66
2022/04/22 07:03:06;;;;;;;;;;;;;;;;;;5072065;28;989;-67
2022/04/22 07:05:33;;;;;;;;;;;;;;;;;;5072588;28;864;-66
2022/04/22 07:07:59;;;;;;;;;;;;;;;;;;5073231;28;879;-66
2022/04/22 07:10:24;;;;;;;;;;;;;;;;;;5072016;28;892;-66
2022/04/22 07:12:50;;;;;;;;;;;;;;;;;;5072998;28;769;-66
2022/04/22 07:15:15;;;;;;;;;;;;;;;;;;5071555;28;943;-66
2022/04/22 07:17:41;;;;;;;;;;;;;;;;;;5072380;28;880;-66
2022/04/22 07:20:09;;;;;;;;;;;;;;;;;;5072904;28;1901;-66
2022/04/22 07:22:38;;;;;;;;;;;;;;;;;;5072396;28;916;-66
2022/04/22 07:25:08;;;;;;;;;;;;;;;;;;5070851;28;762;-66
2022/04/22 07:27:34;;;;;;;;;;;;;;;;;;5082894;28;1132;-66
2022/04/22 07:29:59;;;;;;;;;;;;;;;;;;5092533;28;844;-66
2022/04/22 07:32:25;;;;;;;;;;;;;;;;;;5090558;28;1191;-66
2022/04/22 07:34:50;;;;;;;;;;;;;;;;;;5091395;28;1302;-66
2022/04/22 07:37:16;;;;;;;;;;;;;;;;;;5091640;28;758;-66
2022/04/22 07:39:42;;;;;;;;;;;;;;;;;;5073760;28;1983;-66
2022/04/22 07:42:07;;;;;;;;;;;;;;;;;;5091691;28;1079;-65
2022/04/22 07:47:20;;;;;;;;;;;;;;;;;;5091744;28;687;-66
2022/04/22 07:49:46;;;;;;;;;;;;;;;;;;5093012;28;1049;-66
2022/04/22 07:52:11;;;;;;;;;;;;;;;;;;5092355;28;824;-66
2022/04/22 07:54:37;;;;;;;;;;;;;;;;;;5090760;28;1257;-67
2022/04/22 07:57:02;;;;;;;;;;;;;;;;;;5092126;28;800;-67
2022/04/22 07:59:28;;;;;;;;;;;;;;;;;;5092568;28;1914;-66
2022/04/22 08:01:53;;;;;;;;;;;;;;;;;;5090997;28;1347;-67
2022/04/22 08:04:19;;;;;;;;;;;;;;;;;;5091736;28;934;-66
2022/04/22 08:06:44;;;;;;;;;;;;;;;;;;5091031;28;1272;-66
2022/04/22 08:09:09;;;;;;;;;;;;;;;;;;5092406;28;830;-66
2022/04/22 08:11:35;;;;;;;;;;;;;;;;;;5073507;28;1369;-67
2022/04/22 08:14:00;;;;;;;;;;;;;;;;;;5090598;28;1289;-66
2022/04/22 08:16:26;;;;;;;;;;;;;;;;;;5091523;28;939;-66
2022/04/22 08:18:51;;;;;;;;;;;;;;;;;;5091960;28;1953;-66
2022/04/22 08:21:17;;;;;;;;;;;;;;;;;;5091463;28;876;-66
2022/04/22 08:23:42;;;;;;;;;;;;;;;;;;5090331;28;821;-66
2022/04/22 08:26:08;;;;;;;;;;;;;;;;;;5091296;28;1196;-67
2022/04/22 08:28:33;;;;;;;;;;;;;;;;;;5089513;28;1142;-67
2022/04/22 08:30:58;;;;;;;;;;;;;;;;;;5091588;28;932;-67
2022/04/22 08:33:23;;;;;;;;;;;;;;;;;;5091411;28;1034;-66
2022/04/22 08:35:49;;;;;;;;;;;;;;;;;;5091574;28;903;-66
2022/04/22 08:38:14;;;;;;;;;;;;;;;;;;5090204;28;864;-66
2022/04/22 08:40:39;;;;;;;;;;;;;;;;;;5091483;28;1971;-66
2022/04/22 08:43:06;;;;;;;;;;;;;;;;;;5091635;28;896;-66
2022/04/22 08:45:33;;;;;;;;;;;;;;;;;;5091728;28;806;-67
2022/04/22 08:50:43;;;;;;;;;;;;;;;;;;5092209;28;635;-67
2022/04/22 08:53:11;;;;;;;;;;;;;;;;;;5090834;28;940;-67
2022/04/22 08:55:37;;;;;;;;;;;;;;;;;;5091810;28;770;-67
2022/04/22 08:58:05;;;;;;;;;;;;;;;;;;5091471;28;987;-67
2022/04/22 09:00:34;;;;;;;;;;;;;;;;;;5091248;28;1914;-67
2022/04/22 09:02:59;;;;;;;;;;;;;;;;;;5091517;28;896;-67
2022/04/22 09:05:24;;;;;;;;;;;;;;;;;;5091252;28;765;-66
2022/04/22 09:07:50;;;;;;;;;;;;;;;;;;5091236;28;1379;-67
2022/04/22 09:10:16;;;;;;;;;;;;;;;;;;5089644;28;1321;-67
2022/04/22 09:12:50;;;;;;;;;;;;;;;;;;5089807;28;1178;-67
2022/04/22 09:15:15;;;;;;;;;;;;;;;;;;5091272;28;923;-67
2022/04/22 09:17:40;;;;;;;;;;;;;;;;;;5091683;28;636;-67
2022/04/22 09:20:06;;;;;;;;;;;;;;;;;;5076147;28;1909;-66
2022/04/22 09:22:35;;;;;;;;;;;;;;;;;;5094187;28;773;-66
2022/04/22 09:25:00;;;;;;;;;;;;;;;;;;5095836;28;908;-66
2022/04/22 09:27:35;;;;;;;;;;;;;;;;;;5095179;28;994;-66
2022/04/22 09:30:02;;;;;;;;;;;;;;;;;;5095859;28;836;-67
2022/04/22 09:32:28;;;;;;;;;;;;;;;;;;5095226;28;844;-66
2022/04/22 09:35:05;;;;;;;;;;;;;;;;;;5096039;28;995;-67
2022/04/22 09:43:17;;;;;;;;;;;;;;;;;;5072649;28;1319;-66
2022/04/22 09:45:42;;;;;;;;;;;;;;;;;;5090341;28;1008;-67
2022/04/22 09:48:17;;;;;;;;;;;;;;;;;;5093951;28;883;-67
2022/04/22 09:50:52;;;;;;;;;;;;;;;;;;5094817;28;841;-66
2022/04/22 09:53:27;;;;;;;;;;;;;;;;;;5092787;28;1464;-67
2022/04/22 09:55:53;;;;;;;;;;;;;;;;;;5095405;28;1022;-67
2022/04/22 09:58:27;;;;;;;;;;;;;;;;;;5092622;28;1337;-67
2022/04/22 10:00:54;;;;;;;;;;;;;;;;;;5093429;28;1905;-66
2022/04/22 10:03:21;;;;;;;;;;;;;;;;;;5094474;28;891;-66
2022/04/22 10:05:46;;;;;;;;;;;;;;;;;;5094988;28;844;-66
2022/04/22 10:08:16;;;;;;;;;;;;;;;;;;5094878;28;1558;-66
2022/04/22 10:10:42;;;;;;;;;;;;;;;;;;5094309;28;848;-66
2022/04/22 10:13:12;;;;;;;;;;;;;;;;;;5092260;28;1167;-66
2022/04/22 10:15:39;;;;;;;;;;;;;;;;;;5094397;28;900;-66
2022/04/22 10:18:04;;;;;;;;;;;;;;;;;;5094877;28;880;-66
2022/04/22 10:20:32;;;;;;;;;;;;;;;;;;5093131;28;1886;-66
2022/04/22 10:22:57;;;;;;;;;;;;;;;;;;5093148;28;1416;-66
2022/04/22 10:25:23;;;;;;;;;;;;;;;;;;5094735;28;816;-66
2022/04/22 10:27:50;;;;;;;;;;;;;;;;;;5093638;28;923;-66
2022/04/22 10:30:16;;;;;;;;;;;;;;;;;;5088278;28;1140;-66
2022/04/22 10:32:44;;;;;;;;;;;;;;;;;;5072629;28;906;-66
2022/04/22 10:35:09;;;;;;;;;;;;;;;;;;5074211;28;864;-66
2022/04/22 10:37:38;;;;;;;;;;;;;;;;;;5072642;28;1332;-66
2022/04/22 10:40:03;;;;;;;;;;;;;;;;;;5074029;28;1967;-66
2022/04/22 10:42:32;;;;;;;;;;;;;;;;;;5072014;28;1546;-65
2022/04/22 10:47:49;;;;;;;;;;;;;;;;;;5073698;28;676;-66
2022/04/22 10:50:26;;;;;;;;;;;;;;;;;;5073485;28;797;-66
2022/04/22 10:53:02;;;;;;;;;;;;;;;;;;5073808;28;919;-66
2022/04/22 10:55:28;;;;;;;;;;;;;;;;;;5072075;28;1230;-66
2022/04/22 10:58:16;;;;;;;;;;;;;;;;;;5073827;28;898;-66
2022/04/22 11:00:43;;;;;;;;;;;;;;;;;;5073407;28;1961;-66
2022/04/22 11:03:15;;;;;;;;;;;;;;;;;;5072919;28;824;-66
2022/04/22 11:05:46;;;;;;;;;;;;;;;;;;5073715;28;878;-66
2022/04/22 11:08:18;;;;;;;;;;;;;;;;;;5074017;28;1012;-66
2022/04/22 11:10:46;;;;;;;;;;;;;;;;;;5073852;28;999;-66
2022/04/22 11:13:29;;;;;;;;;;;;;;;;;;5073785;28;868;-66
2022/04/22 11:16:14;;;;;;;;;;;;;;;;;;5073511;28;927;-66
2022/04/22 11:18:39;;;;;;;;;;;;;;;;;;5072844;28;774;-66
2022/04/22 11:21:10;;;;;;;;;;;;;;;;;;5072566;28;1956;-66
2022/04/22 11:23:36;;;;;;;;;;;;;;;;;;5072578;28;904;-66
2022/04/22 11:26:02;;;;;;;;;;;;;;;;;;5072846;28;817;-66
2022/04/22 11:28:28;;;;;;;;;;;;;;;;;;5072440;28;888;-66
2022/04/22 11:30:53;;;;;;;;;;;;;;;;;;5055004;28;911;-66
2022/04/22 11:33:23;;;;;;;;;;;;;;;;;;5072115;28;998;-66
2022/04/22 11:35:58;;;;;;;;;;;;;;;;;;5072115;28;879;-67
2022/04/22 11:38:23;;;;;;;;;;;;;;;;;;5072206;28;848;-66
2022/04/22 11:40:51;;;;;;;;;;;;;;;;;;5072112;28;1910;-66
2022/04/22 11:43:21;;;;;;;;;;;;;;;;;;5072029;28;816;-66
2022/04/22 11:45:50;;;;;;;;;;;;;;;;;;5072285;28;923;-67
2022/04/22 11:48:19;;;;;;;;;;;;;;;;;;5070985;28;1266;-66
2022/04/22 11:50:45;;;;;;;;;;;;;;;;;;5072434;28;844;-66
2022/04/22 11:53:15;;;;;;;;;;;;;;;;;;5072112;28;872;-67
2022/04/22 11:55:44;;;;;;;;;;;;;;;;;;5072069;28;884;-66
2022/04/22 11:58:13;;;;;;;;;;;;;;;;;;5072609;28;982;-66
2022/04/22 12:06:22;;;;;;;;;;;;;;;;;;5038083;28;1085;-66
2022/04/22 12:08:54;;;;;;;;;;;;;;;;;;5071898;28;758;-67
2022/04/22 12:11:20;;;;;;;;;;;;;;;;;;5070454;28;1385;-66
2022/04/22 12:13:47;;;;;;;;;;;;;;;;;;5072002;28;998;-66
2022/04/22 12:16:16;;;;;;;;;;;;;;;;;;5072031;28;828;-66
2022/04/22 12:18:42;;;;;;;;;;;;;;;;;;5071613;28;923;-66
2022/04/22 12:21:11;;;;;;;;;;;;;;;;;;5070086;28;1938;-67
2022/04/22 12:23:37;;;;;;;;;;;;;;;;;;5071463;28;998;-66
2022/04/22 12:26:03;;;;;;;;;;;;;;;;;;5071519;28;820;-66
2022/04/22 12:28:28;;;;;;;;;;;;;;;;;;5071685;28;798;-67
2022/04/22 12:30:54;;;;;;;;;;;;;;;;;;5072181;28;884;-67
2022/04/22 12:33:20;;;;;;;;;;;;;;;;;;5071920;28;1012;-67
2022/04/22 12:35:46;;;;;;;;;;;;;;;;;;5070049;28;1219;-67
2022/04/22 12:38:12;;;;;;;;;;;;;;;;;;5071851;28;877;-67
2022/04/22 12:40:47;;;;;;;;;;;;;;;;;;5071345;28;1971;-66
2022/04/22 12:43:27;;;;;;;;;;;;;;;;;;5070506;28;1301;-67
2022/04/22 12:54:11;;;;;;;;;;;;;;;;;;5071461;28;626;-67
2022/04/22 12:56:37;;;;;;;;;;;;;;;;;;5070827;28;832;-67
2022/04/22 12:59:03;;;;;;;;;;;;;;;;;;5069895;28;1980;-68
2022/04/22 13:01:36;;;;;;;;;;;;;;;;;;5070907;28;817;-66
2022/04/22 13:04:02;;;;;;;;;;;;;;;;;;5069991;28;1218;-66
2022/04/22 13:06:37;;;;;;;;;;;;;;;;;;5071044;28;1066;-66
2022/04/22 13:09:03;;;;;;;;;;;;;;;;;;5071418;28;904;-66
2022/04/22 13:11:28;;;;;;;;;;;;;;;;;;5070971;28;852;-66
2022/04/22 13:13:53;;;;;;;;;;;;;;;;;;5069796;28;872;-67
2022/04/22 13:16:18;;;;;;;;;;;;;;;;;;5071632;28;880;-67
2022/04/22 13:18:44;;;;;;;;;;;;;;;;;;5071233;28;908;-66
2022/04/22 13:21:09;;;;;;;;;;;;;;;;;;5071268;28;1959;-67
2022/04/22 13:23:36;;;;;;;;;;;;;;;;;;5071421;28;1046;-67
2022/04/22 13:26:01;;;;;;;;;;;;;;;;;;5069637;28;892;-67
2022/04/22 13:28:26;;;;;;;;;;;;;;;;;;5071051;28;978;-67
2022/04/22 13:30:52;;;;;;;;;;;;;;;;;;5071208;28;934;-67
2022/04/22 13:33:17;;;;;;;;;;;;;;;;;;5071305;28;825;-67
2022/04/22 13:35:43;;;;;;;;;;;;;;;;;;5070973;28;860;-67
2022/04/22 13:38:08;;;;;;;;;;;;;;;;;;5070643;28;785;-67
2022/04/22 13:40:34;;;;;;;;;;;;;;;;;;5071167;28;1965;-67
2022/04/22 13:42:59;;;;;;;;;;;;;;;;;;5071041;28;1389;-67
2022/04/22 13:53:36;;;;;;;;;;;;;;;;;;5071333;28;669;-66
2022/04/22 13:56:01;;;;;;;;;;;;;;;;;;5070938;28;872;-66
2022/04/22 13:58:27;;;;;;;;;;;;;;;;;;5071467;28;1002;-67
2022/04/22 14:00:52;;;;;;;;;;;;;;;;;;5071036;28;1914;-67
2022/04/22 14:03:19;;;;;;;;;;;;;;;;;;5069646;28;844;-67
2022/04/22 14:05:45;;;;;;;;;;;;;;;;;;5053330;28;1371;-68
2022/04/22 14:08:10;;;;;;;;;;;;;;;;;;5073437;28;1309;-67
2022/04/22 14:10:36;;;;;;;;;;;;;;;;;;5074950;28;837;-67
2022/04/22 14:13:01;;;;;;;;;;;;;;;;;;5073852;28;1056;-67
2022/04/22 14:15:27;;;;;;;;;;;;;;;;;;5075133;28;824;-67
2022/04/22 14:17:52;;;;;;;;;;;;;;;;;;5075175;28;884;-67
2022/04/22 14:20:17;;;;;;;;;;;;;;;;;;5075079;28;1953;-67
2022/04/22 14:22:43;;;;;;;;;;;;;;;;;;5075193;28;1053;-67
2022/04/22 14:25:08;;;;;;;;;;;;;;;;;;5075258;28;801;-67
2022/04/22 14:27:34;;;;;;;;;;;;;;;;;;5075365;28;872;-67
2022/04/22 14:29:59;;;;;;;;;;;;;;;;;;5073594;28;1163;-67
2022/04/22 14:32:24;;;;;;;;;;;;;;;;;;5073552;28;841;-67
2022/04/22 14:34:50;;;;;;;;;;;;;;;;;;5073573;28;935;-67
2022/04/22 14:37:16;;;;;;;;;;;;;;;;;;5074234;28;856;-67
2022/04/22 14:39:42;;;;;;;;;;;;;;;;;;5073274;28;1918;-67
2022/04/22 14:42:07;;;;;;;;;;;;;;;;;;5072478;28;1206;-67
2022/04/22 14:44:32;;;;;;;;;;;;;;;;;;5073751;28;837;-67
2022/04/22 14:46:58;;;;;;;;;;;;;;;;;;5072515;28;868;-67
2022/04/22 14:49:23;;;;;;;;;;;;;;;;;;5073275;28;821;-67
2022/04/22 14:51:50;;;;;;;;;;;;;;;;;;5073620;28;754;-66
2022/04/22 14:54:15;;;;;;;;;;;;;;;;;;5072981;28;825;-66
2022/04/22 14:56:41;;;;;;;;;;;;;;;;;;5073162;28;919;-66
2022/04/22 14:59:06;;;;;;;;;;;;;;;;;;5073147;28;1902;-66
2022/04/22 15:01:32;;;;;;;;;;;;;;;;;;5071571;28;1167;-66
2022/04/22 15:03:57;;;;;;;;;;;;;;;;;;5071311;28;1170;-66
2022/04/22 15:06:23;;;;;;;;;;;;;;;;;;5073218;28;947;-66
2022/04/22 15:08:48;;;;;;;;;;;;;;;;;;5071902;28;1229;-67
2022/04/22 15:11:15;;;;;;;;;;;;;;;;;;5071660;28;1302;-66
2022/04/22 15:13:40;;;;;;;;;;;;;;;;;;5071998;28;884;-67
2022/04/22 15:16:05;;;;;;;;;;;;;;;;;;5071330;28;1605;-67
2022/04/22 15:24:09;;;;;;;;;;;;;;;;;;5073180;28;602;-67
2022/04/22 15:26:35;;;;;;;;;;;;;;;;;;5072688;28;923;-67
2022/04/22 15:29:02;;;;;;;;;;;;;;;;;;5071315;28;1423;-66
2022/04/22 15:31:28;;;;;;;;;;;;;;;;;;5072879;28;971;-67
2022/04/22 15:33:53;;;;;;;;;;;;;;;;;;5072879;28;829;-67
2022/04/22 15:36:19;;;;;;;;;;;;;;;;;;5072224;28;930;-66
2022/04/22 15:38:44;;;;;;;;;;;;;;;;;;5072666;28;824;-67
2022/04/22 15:41:14;;;;;;;;;;;;;;;;;;5070674;28;1969;-68
2022/04/22 15:43:43;;;;;;;;;;;;;;;;;;5072762;28;836;-68
2022/04/22 15:46:09;;;;;;;;;;;;;;;;;;5072937;28;777;-67
2022/04/22 15:48:34;;;;;;;;;;;;;;;;;;5072797;28;841;-67
2022/04/22 15:51:00;;;;;;;;;;;;;;;;;;5072032;28;832;-67
2022/04/22 15:53:25;;;;;;;;;;;;;;;;;;5073126;28;856;-67
2022/04/22 15:55:50;;;;;;;;;;;;;;;;;;5073471;28;809;-67
2022/04/22 15:58:17;;;;;;;;;;;;;;;;;;5071017;28;1302;-67
2022/04/22 16:00:43;;;;;;;;;;;;;;;;;;5072968;28;1913;-67
2022/04/22 16:03:10;;;;;;;;;;;;;;;;;;5072647;28;1581;-67
2022/04/22 16:05:35;;;;;;;;;;;;;;;;;;5072434;28;799;-67
2022/04/22 16:08:02;;;;;;;;;;;;;;;;;;5071327;28;766;-67
2022/04/22 16:10:27;;;;;;;;;;;;;;;;;;5072533;28;848;-66
2022/04/22 16:15:36;;;;;;;;;;;;;;;;;;5072303;28;715;-67
2022/04/22 16:18:02;;;;;;;;;;;;;;;;;;5070786;28;837;-66
2022/04/22 16:20:28;;;;;;;;;;;;;;;;;;5053418;28;1910;-66
2022/04/22 16:22:54;;;;;;;;;;;;;;;;;;5070412;28;860;-67
2022/04/22 16:25:20;;;;;;;;;;;;;;;;;;5053666;28;1244;-66
2022/04/22 16:27:49;;;;;;;;;;;;;;;;;;5070018;28;1163;-67
2022/04/22 16:30:15;;;;;;;;;;;;;;;;;;5071272;28;781;-66
2022/04/22 16:32:40;;;;;;;;;;;;;;;;;;5070470;28;1373;-67
2022/04/22 16:35:06;;;;;;;;;;;;;;;;;;5071898;28;769;-67
2022/04/22 16:37:34;;;;;;;;;;;;;;;;;;5053058;28;1195;-67
2022/04/22 16:39:59;;;;;;;;;;;;;;;;;;5071475;28;1910;-66
2022/04/22 16:42:24;;;;;;;;;;;;;;;;;;5070543;28;1290;-67
2022/04/22 16:44:50;;;;;;;;;;;;;;;;;;5053255;28;1162;-67
2022/04/22 16:47:16;;;;;;;;;;;;;;;;;;5071301;28;805;-66
2022/04/22 16:49:41;;;;;;;;;;;;;;;;;;5070747;28;1122;-67
2022/04/22 16:52:08;;;;;;;;;;;;;;;;;;5070550;28;928;-67
2022/04/22 16:54:33;;;;;;;;;;;;;;;;;;5070706;28;1583;-67
2022/04/22 16:57:00;;;;;;;;;;;;;;;;;;5071788;28;887;-67
2022/04/22 16:59:25;;;;;;;;;;;;;;;;;;5070971;28;1975;-67
2022/04/22 17:01:51;;;;;;;;;;;;;;;;;;5070238;28;1198;-66
2022/04/22 17:04:16;;;;;;;;;;;;;;;;;;5070080;28;1170;-67
2022/04/22 17:06:42;;;;;;;;;;;;;;;;;;5071724;28;777;-67
2022/04/22 17:09:08;;;;;;;;;;;;;;;;;;5069992;28;1259;-67
2022/04/22 17:11:33;;;;;;;;;;;;;;;;;;5053427;28;987;-66
2022/04/22 17:24:56;;;;;;;;;;;;;;;;;;5072553;28;671;-68
2022/04/22 17:27:22;;;;;;;;;;;;;;;;;;5072129;28;873;-67
2022/04/22 17:29:47;;;;;;;;;;;;;;;;;;5070914;28;824;-67
2022/04/22 17:32:12;;;;;;;;;;;;;;;;;;5053636;28;1409;-67
2022/04/22 17:34:38;;;;;;;;;;;;;;;;;;5070538;28;1331;-67
2022/04/22 17:37:05;;;;;;;;;;;;;;;;;;5070940;28;1567;-66
2022/04/22 17:39:31;;;;;;;;;;;;;;;;;;5071380;28;1898;-66
2022/04/22 17:41:56;;;;;;;;;;;;;;;;;;5076229;28;1057;-67
2022/04/22 17:44:22;;;;;;;;;;;;;;;;;;5057357;28;1172;-67
2022/04/22 17:46:47;;;;;;;;;;;;;;;;;;5074741;28;1362;-67
2022/04/22 17:49:14;;;;;;;;;;;;;;;;;;5074245;28;762;-67
2022/04/22 17:51:39;;;;;;;;;;;;;;;;;;5074193;28;778;-66
2022/04/22 17:54:05;;;;;;;;;;;;;;;;;;5075425;28;887;-67
2022/04/22 17:56:30;;;;;;;;;;;;;;;;;;5074935;28;770;-67
2022/04/22 17:58:56;;;;;;;;;;;;;;;;;;5075121;28;896;-66
2022/04/22 18:01:23;;;;;;;;;;;;;;;;;;5073060;28;1917;-66
2022/04/22 18:03:48;;;;;;;;;;;;;;;;;;5075108;28;832;-67
2022/04/22 18:06:13;;;;;;;;;;;;;;;;;;5074783;28;801;-66
2022/04/22 18:08:39;;;;;;;;;;;;;;;;;;5074183;28;816;-67
2022/04/22 18:11:05;;;;;;;;;;;;;;;;;;5074505;28;852;-66
2022/04/22 18:13:30;;;;;;;;;;;;;;;;;;5073071;28;735;-67
2022/04/22 18:16:15;;;;;;;;;;;;;;;;;;5073304;28;972;-67
2022/04/22 18:18:40;;;;;;;;;;;;;;;;;;5074587;28;852;-66
2022/04/22 18:21:06;;;;;;;;;;;;;;;;;;5074631;28;1968;-67
2022/04/22 18:23:31;;;;;;;;;;;;;;;;;;5072982;28;1516;-67
2022/04/22 18:25:57;;;;;;;;;;;;;;;;;;5074618;28;863;-67
2022/04/22 18:28:22;;;;;;;;;;;;;;;;;;5074312;28;876;-67
2022/04/22 18:30:47;;;;;;;;;;;;;;;;;;5074148;28;981;-67
2022/04/22 18:33:15;;;;;;;;;;;;;;;;;;5073161;28;888;-67
2022/04/22 18:35:40;;;;;;;;;;;;;;;;;;5074078;28;793;-66
2022/04/22 18:38:07;;;;;;;;;;;;;;;;;;5074167;28;872;-66
2022/04/22 18:40:32;;;;;;;;;;;;;;;;;;5072106;28;1902;-66